createdAt,value
2018-07-08T00:00:26.356Z,29
2018-07-08T00:02:29.684Z,29
2018-07-08T00:04:33.016Z,29
2018-07-08T00:06:36.343Z,29
2018-07-08T00:08:39.674Z,29
2018-07-08T00:10:42.999Z,29
2018-07-08T00:12:49.200Z,29
2018-07-08T00:14:52.524Z,29
2018-07-08T00:16:55.860Z,29
2018-07-08T00:18:59.183Z,29
2018-07-08T00:21:02.515Z,29
2018-07-08T00:23:05.884Z,29
2018-07-08T00:25:15.810Z,29
2018-07-08T00:27:25.073Z,29
2018-07-08T00:29:28.397Z,29
2018-07-08T00:31:31.726Z,29
2018-07-08T00:33:35.055Z,29
2018-07-08T00:35:38.386Z,29
2018-07-08T00:37:41.714Z,29
2018-07-08T00:39:45.098Z,29
2018-07-08T00:41:48.650Z,29
2018-07-08T00:43:51.981Z,29
2018-07-08T00:45:55.357Z,29
2018-07-08T00:47:58.688Z,29
2018-07-08T00:50:02.019Z,29
2018-07-08T00:52:05.343Z,28.9
2018-07-08T00:54:08.678Z,28.9
2018-07-08T00:56:12.001Z,29
2018-07-08T00:58:15.332Z,29
2018-07-08T01:00:18.663Z,29
2018-07-08T01:02:24.933Z,29
2018-07-08T01:04:28.262Z,28.9
2018-07-08T01:06:31.593Z,28.9
2018-07-08T01:08:34.965Z,29
2018-07-08T01:10:38.313Z,29
2018-07-08T01:12:41.640Z,29
2018-07-08T01:14:44.972Z,29
2018-07-08T01:16:48.295Z,29
2018-07-08T01:18:51.627Z,29
2018-07-08T01:20:54.987Z,29
2018-07-08T01:22:58.312Z,28.9
2018-07-08T01:25:01.644Z,28.9
2018-07-08T01:27:04.974Z,28.9
2018-07-08T01:29:11.274Z,28.9
2018-07-08T01:31:14.602Z,28.9
2018-07-08T01:33:17.928Z,28.9
2018-07-08T01:35:21.253Z,28.9
2018-07-08T01:37:24.586Z,28.9
2018-07-08T01:39:27.912Z,28.9
2018-07-08T01:41:31.244Z,28.9
2018-07-08T01:43:34.572Z,28.9
2018-07-08T01:45:37.941Z,28.9
2018-07-08T01:47:41.265Z,28.9
2018-07-08T01:49:44.592Z,28.9
2018-07-08T01:51:50.907Z,28.9
2018-07-08T01:53:54.241Z,28.9
2018-07-08T01:55:57.566Z,28.9
2018-07-08T01:58:00.937Z,28.9
2018-07-08T02:00:04.304Z,28.9
2018-07-08T02:02:11.667Z,28.9
2018-07-08T02:04:15.015Z,28.9
2018-07-08T02:06:18.342Z,28.9
2018-07-08T02:08:21.696Z,28.9
2018-07-08T02:10:25.064Z,28.9
2018-07-08T02:12:28.444Z,29
2018-07-08T02:14:31.765Z,28.9
2018-07-08T02:16:35.095Z,28.9
2018-07-08T02:18:38.427Z,28.9
2018-07-08T02:20:41.792Z,28.9
2018-07-08T02:22:45.119Z,28.9
2018-07-08T02:24:48.468Z,28.9
2018-07-08T02:26:51.797Z,28.9
2018-07-08T02:28:55.124Z,28.9
2018-07-08T02:30:58.451Z,28.9
2018-07-08T02:33:01.785Z,28.9
2018-07-08T02:35:05.112Z,28.9
2018-07-08T02:37:08.441Z,28.9
2018-07-08T02:39:11.770Z,28.9
2018-07-08T02:41:15.097Z,28.9
2018-07-08T02:43:18.431Z,28.9
2018-07-08T02:45:21.755Z,28.9
2018-07-08T02:47:25.125Z,28.9
2018-07-08T02:49:28.455Z,28.9
2018-07-08T02:51:31.783Z,28.9
2018-07-08T02:53:35.115Z,28.9
2018-07-08T02:55:38.527Z,28.9
2018-07-08T02:57:41.854Z,28.9
2018-07-08T02:59:45.183Z,28.9
2018-07-08T03:01:48.514Z,28.9
2018-07-08T03:03:52.025Z,28.9
2018-07-08T03:05:55.352Z,28.9
2018-07-08T03:07:58.680Z,28.9
2018-07-08T03:10:02.014Z,28.9
2018-07-08T03:12:05.524Z,28.9
2018-07-08T03:14:08.864Z,28.9
2018-07-08T03:16:12.195Z,28.9
2018-07-08T03:18:15.525Z,28.9
2018-07-08T03:20:18.860Z,28.9
2018-07-08T03:22:22.182Z,28.9
2018-07-08T03:24:25.516Z,28.9
2018-07-08T03:26:28.842Z,28.9
2018-07-08T03:28:32.173Z,28.9
2018-07-08T03:30:35.533Z,28.9
2018-07-08T03:32:38.870Z,28.9
2018-07-08T03:34:42.203Z,28.9
2018-07-08T03:36:45.527Z,28.9
2018-07-08T03:38:48.859Z,28.9
2018-07-08T03:40:52.184Z,28.9
2018-07-08T03:42:55.514Z,28.9
2018-07-08T03:44:58.847Z,28.9
2018-07-08T03:47:02.173Z,28.9
2018-07-08T03:49:05.506Z,28.9
2018-07-08T03:51:08.836Z,28.9
2018-07-08T03:53:12.163Z,28.9
2018-07-08T03:55:15.494Z,28.9
2018-07-08T03:57:18.819Z,28.9
2018-07-08T03:59:22.153Z,28.9
2018-07-08T04:01:25.489Z,28.9
2018-07-08T04:03:28.816Z,28.9
2018-07-08T04:05:32.146Z,28.9
2018-07-08T04:07:35.475Z,28.9
2018-07-08T04:09:38.800Z,28.9
2018-07-08T04:11:42.135Z,28.9
2018-07-08T04:13:45.463Z,28.9
2018-07-08T04:15:48.798Z,28.9
2018-07-08T04:17:52.122Z,28.9
2018-07-08T04:19:55.450Z,28.9
2018-07-08T04:21:58.783Z,28.9
2018-07-08T04:24:02.114Z,28.9
2018-07-08T04:26:05.443Z,28.9
2018-07-08T04:28:11.419Z,28.9
2018-07-08T04:30:14.749Z,28.9
2018-07-08T04:32:18.087Z,28.9
2018-07-08T04:34:21.419Z,28.9
2018-07-08T04:36:24.746Z,28.9
2018-07-08T04:38:28.082Z,28.9
2018-07-08T04:40:31.409Z,28.9
2018-07-08T04:42:34.740Z,28.8
2018-07-08T04:44:38.068Z,28.8
2018-07-08T04:46:41.396Z,28.9
2018-07-08T04:48:44.728Z,28.9
2018-07-08T04:50:48.057Z,28.9
2018-07-08T04:52:51.390Z,28.9
2018-07-08T04:54:54.717Z,28.9
2018-07-08T04:56:58.045Z,28.9
2018-07-08T04:59:01.378Z,28.9
2018-07-08T05:01:04.710Z,28.9
2018-07-08T05:03:08.032Z,28.9
2018-07-08T05:05:11.403Z,28.9
2018-07-08T05:07:14.726Z,28.9
2018-07-08T05:09:18.063Z,28.9
2018-07-08T05:11:21.387Z,28.9
2018-07-08T05:13:24.757Z,28.9
2018-07-08T05:15:28.080Z,28.9
2018-07-08T05:17:31.411Z,28.9
2018-07-08T05:19:34.740Z,28.9
2018-07-08T05:21:38.104Z,28.9
2018-07-08T05:23:41.437Z,28.9
2018-07-08T05:25:44.766Z,28.9
2018-07-08T05:27:48.090Z,28.9
2018-07-08T05:29:51.475Z,28.9
2018-07-08T05:31:55.303Z,28.9
2018-07-08T05:33:58.637Z,28.9
2018-07-08T05:36:01.970Z,28.9
2018-07-08T05:38:05.304Z,28.9
2018-07-08T05:40:08.628Z,28.9
2018-07-08T05:42:11.957Z,28.9
2018-07-08T05:44:15.324Z,28.9
2018-07-08T05:46:18.644Z,28.9
2018-07-08T05:48:21.977Z,28.9
2018-07-08T05:50:25.430Z,28.9
2018-07-08T05:52:29.477Z,28.9
2018-07-08T05:54:32.804Z,28.9
2018-07-08T05:56:36.133Z,28.9
2018-07-08T05:58:39.459Z,28.9
2018-07-08T06:00:42.794Z,28.9
2018-07-08T06:02:46.164Z,28.9
2018-07-08T06:04:49.488Z,28.9
2018-07-08T06:06:52.813Z,28.9
2018-07-08T06:08:56.147Z,28.9
2018-07-08T06:10:59.478Z,28.9
2018-07-08T06:13:02.804Z,28.9
2018-07-08T06:15:06.133Z,28.9
2018-07-08T06:17:09.464Z,29
2018-07-08T06:19:12.796Z,29
2018-07-08T06:21:16.121Z,29
2018-07-08T06:23:19.455Z,29
2018-07-08T06:25:22.821Z,28.9
2018-07-08T06:27:26.149Z,29
2018-07-08T06:29:29.476Z,29
2018-07-08T06:31:32.805Z,29
2018-07-08T06:33:36.139Z,29
2018-07-08T06:35:39.468Z,29
2018-07-08T06:37:42.794Z,29
2018-07-08T06:39:46.124Z,29
2018-07-08T06:41:49.452Z,29
2018-07-08T06:43:52.785Z,29
2018-07-08T06:45:56.126Z,29
2018-07-08T06:47:59.456Z,29
2018-07-08T06:50:02.810Z,29
2018-07-08T06:52:07.144Z,29
2018-07-08T06:54:10.702Z,29
2018-07-08T06:56:14.032Z,29
2018-07-08T06:58:17.400Z,29
2018-07-08T07:00:20.729Z,29
2018-07-08T07:02:24.062Z,29
2018-07-08T07:04:27.391Z,29
2018-07-08T07:06:30.723Z,29
2018-07-08T07:08:34.049Z,29
2018-07-08T07:10:37.380Z,29
2018-07-08T07:12:40.708Z,29
2018-07-08T07:14:44.041Z,29
2018-07-08T07:16:47.367Z,29
2018-07-08T07:18:50.699Z,29
2018-07-08T07:20:54.023Z,28.9
2018-07-08T07:22:58.309Z,28.9
2018-07-08T07:25:01.804Z,29
2018-07-08T07:27:05.136Z,29
2018-07-08T07:29:08.484Z,28.9
2018-07-08T07:31:11.813Z,29
2018-07-08T07:33:15.141Z,29
2018-07-08T07:35:18.470Z,29
2018-07-08T07:37:21.915Z,29
2018-07-08T07:39:25.802Z,29
2018-07-08T07:41:29.141Z,29
2018-07-08T07:43:32.469Z,29
2018-07-08T07:45:35.799Z,28.9
2018-07-08T07:47:39.133Z,28.9
2018-07-08T07:49:42.466Z,28.9
2018-07-08T07:51:45.795Z,28.9
2018-07-08T07:53:49.123Z,28.9
2018-07-08T07:55:52.454Z,29
2018-07-08T07:57:55.792Z,28.9
2018-07-08T07:59:59.121Z,28.9
2018-07-08T08:02:02.451Z,28.9
2018-07-08T08:04:06.708Z,28.9
2018-07-08T08:06:10.043Z,28.9
2018-07-08T08:08:13.369Z,28.9
2018-07-08T08:10:16.747Z,28.9
2018-07-08T08:12:20.077Z,28.9
2018-07-08T08:14:23.403Z,28.9
2018-07-08T08:16:26.735Z,29
2018-07-08T08:18:30.058Z,28.9
2018-07-08T08:20:33.394Z,28.9
2018-07-08T08:22:36.733Z,28.9
2018-07-08T08:24:41.092Z,28.9
2018-07-08T08:26:44.454Z,28.9
2018-07-08T08:28:48.272Z,28.9
2018-07-08T08:30:51.597Z,28.9
2018-07-08T08:32:54.929Z,29
2018-07-08T08:34:58.259Z,28.9
2018-07-08T08:37:01.583Z,28.9
2018-07-08T08:39:04.916Z,28.9
2018-07-08T08:41:08.247Z,28.9
2018-07-08T08:43:11.579Z,29
2018-07-08T08:45:14.908Z,29
2018-07-08T08:47:18.239Z,28.9
2018-07-08T08:49:21.572Z,28.9
2018-07-08T08:51:24.900Z,29
2018-07-08T08:53:28.232Z,29
2018-07-08T08:55:31.563Z,28.9
2018-07-08T08:57:34.896Z,28.9
2018-07-08T08:59:38.224Z,28.9
2018-07-08T09:01:41.552Z,29
2018-07-08T09:03:44.946Z,28.9
2018-07-08T09:05:48.377Z,28.9
2018-07-08T09:07:51.705Z,28.9
2018-07-08T09:09:55.035Z,28.9
2018-07-08T09:11:58.360Z,28.9
2018-07-08T09:14:01.696Z,28.9
2018-07-08T09:16:05.023Z,28.9
2018-07-08T09:18:08.352Z,28.9
2018-07-08T09:20:11.678Z,28.9
2018-07-08T09:22:15.047Z,28.9
2018-07-08T09:24:18.371Z,28.9
2018-07-08T09:26:21.704Z,29
2018-07-08T09:28:25.033Z,29
2018-07-08T09:30:28.360Z,29
2018-07-08T09:32:31.688Z,28.9
2018-07-08T09:34:35.017Z,29
2018-07-08T09:36:38.347Z,28.9
2018-07-08T09:38:41.726Z,28.9
2018-07-08T09:40:45.781Z,28.9
2018-07-08T09:42:49.112Z,29
2018-07-08T09:44:52.527Z,29
2018-07-08T09:46:55.851Z,29
2018-07-08T09:48:59.180Z,29
2018-07-08T09:51:02.514Z,29
2018-07-08T09:53:05.843Z,29
2018-07-08T09:55:09.170Z,29
2018-07-08T09:57:12.498Z,29
2018-07-08T09:59:15.829Z,29
2018-07-08T10:01:19.161Z,29
2018-07-08T10:03:22.491Z,29
2018-07-08T10:05:25.992Z,29
2018-07-08T10:07:29.325Z,28.9
2018-07-08T10:09:32.651Z,28.7
2018-07-08T10:11:36.030Z,28.3
2018-07-08T10:13:39.397Z,28.1
2018-07-08T10:15:43.199Z,27.7
2018-07-08T10:17:46.596Z,27.6
2018-07-08T10:19:51.187Z,27.6
2018-07-08T10:21:56.485Z,27.3
2018-07-08T10:23:59.811Z,27.3
2018-07-08T10:26:06.136Z,27.4
2018-07-08T10:28:09.465Z,27.6
2018-07-08T10:30:12.845Z,27.7
2018-07-08T10:32:16.187Z,27.8
2018-07-08T10:34:19.528Z,27.9
2018-07-08T10:36:22.857Z,27.9
2018-07-08T10:38:26.236Z,27.8
2018-07-08T10:40:29.601Z,27.7
2018-07-08T10:42:32.958Z,27.7
2018-07-08T10:44:36.288Z,27.5
2018-07-08T10:46:39.620Z,27.4
2018-07-08T10:48:42.949Z,27
2018-07-08T10:50:46.277Z,26.9
2018-07-08T10:52:49.610Z,27
2018-07-08T10:54:52.941Z,27
2018-07-08T10:56:56.284Z,27.1
2018-07-08T10:58:59.663Z,27.1
2018-07-08T11:01:02.987Z,27.1
2018-07-08T11:03:06.320Z,27
2018-07-08T11:05:09.697Z,26.9
2018-07-08T11:07:13.017Z,27
2018-07-08T11:09:16.350Z,27
2018-07-08T11:11:19.684Z,26.9
2018-07-08T11:13:23.013Z,26.9
2018-07-08T11:15:26.343Z,27
2018-07-08T11:17:29.673Z,27
2018-07-08T11:19:33.071Z,26.8
2018-07-08T11:21:36.404Z,26.8
2018-07-08T11:23:39.774Z,26.8
2018-07-08T11:25:43.102Z,26.7
2018-07-08T11:27:46.429Z,26.7
2018-07-08T11:29:49.765Z,26.6
2018-07-08T11:31:53.088Z,26.6
2018-07-08T11:33:56.420Z,26.5
2018-07-08T11:35:59.786Z,26.6
2018-07-08T11:38:03.110Z,26.5
2018-07-08T11:40:06.750Z,26.5
2018-07-08T11:42:10.081Z,26.5
2018-07-08T11:44:13.406Z,26.5
2018-07-08T11:46:16.742Z,26.5
2018-07-08T11:48:20.088Z,26.4
2018-07-08T11:50:23.416Z,26.5
2018-07-08T11:52:26.739Z,26.5
2018-07-08T11:54:30.070Z,26.5
2018-07-08T11:56:33.401Z,26.5
2018-07-08T11:58:36.726Z,26.4
2018-07-08T12:00:40.062Z,26.5
2018-07-08T12:02:43.387Z,26.4
2018-07-08T12:04:47.647Z,26.5
2018-07-08T12:06:51.161Z,26.5
2018-07-08T12:08:54.554Z,26.5
2018-07-08T12:10:58.277Z,26.5
2018-07-08T12:13:01.602Z,26.5
2018-07-08T12:15:04.939Z,26.6
2018-07-08T12:17:08.267Z,26.6
2018-07-08T12:19:11.601Z,26.7
2018-07-08T12:21:14.953Z,26.9
2018-07-08T12:23:18.580Z,26.9
2018-07-08T12:25:21.907Z,26.8
2018-07-08T12:27:25.234Z,26.9
2018-07-08T12:29:28.567Z,26.8
2018-07-08T12:31:31.893Z,26.8
2018-07-08T12:33:35.225Z,26.8
2018-07-08T12:35:38.555Z,26.8
2018-07-08T12:37:41.883Z,26.8
2018-07-08T12:39:45.214Z,26.9
2018-07-08T12:41:48.552Z,27
2018-07-08T12:43:51.877Z,27.2
2018-07-08T12:45:55.208Z,27.2
2018-07-08T12:47:58.540Z,27.2
2018-07-08T12:50:01.906Z,27.3
2018-07-08T12:52:05.229Z,27.3
2018-07-08T12:54:08.610Z,27.3
2018-07-08T12:56:11.935Z,27.4
2018-07-08T12:58:15.289Z,27.5
2018-07-08T13:00:18.625Z,27.6
2018-07-08T13:02:21.966Z,27.6
2018-07-08T13:04:25.300Z,27.6
2018-07-08T13:06:28.661Z,27.7
2018-07-08T13:08:32.184Z,27.6
2018-07-08T13:10:35.518Z,27.5
2018-07-08T13:12:38.843Z,27.6
2018-07-08T13:14:42.181Z,27.5
2018-07-08T13:16:45.508Z,27.5
2018-07-08T13:18:48.839Z,27.5
2018-07-08T13:20:52.198Z,27.5
2018-07-08T13:22:56.449Z,27.5
2018-07-08T13:25:02.786Z,27.6
2018-07-08T13:27:06.149Z,27.6
2018-07-08T13:29:09.523Z,27.7
2018-07-08T13:31:12.845Z,27.6
2018-07-08T13:33:16.177Z,27.6
2018-07-08T13:35:19.508Z,27.7
2018-07-08T13:37:22.840Z,27.7
2018-07-08T13:39:26.173Z,27.7
2018-07-08T13:41:29.501Z,27.6
2018-07-08T13:43:32.831Z,27.7
2018-07-08T13:45:37.097Z,27.7
2018-07-08T13:47:40.432Z,27.8
2018-07-08T13:49:43.771Z,27.8
2018-07-08T13:51:47.094Z,27.9
2018-07-08T13:53:50.442Z,27.9
2018-07-08T13:55:53.781Z,27.9
2018-07-08T13:57:57.176Z,27.8
2018-07-08T14:00:00.503Z,27.8
2018-07-08T14:02:03.840Z,27.7
2018-07-08T14:04:07.163Z,27.7
2018-07-08T14:06:10.495Z,27.7
2018-07-08T14:08:13.825Z,27.8
2018-07-08T14:10:18.154Z,27.9
2018-07-08T14:12:21.482Z,27.9
2018-07-08T14:14:24.811Z,28
2018-07-08T14:16:28.170Z,28
2018-07-08T14:18:31.539Z,28
2018-07-08T14:20:35.127Z,28
2018-07-08T14:22:44.925Z,28
2018-07-08T14:24:48.290Z,28.1
2018-07-08T14:26:51.625Z,28.1
2018-07-08T14:28:55.164Z,28.1
2018-07-08T14:30:58.506Z,28.1
2018-07-08T14:33:02.039Z,28.1
2018-07-08T14:35:05.484Z,28.1
2018-07-08T14:37:08.950Z,28.1
2018-07-08T14:39:12.336Z,28.1
2018-07-08T14:41:16.359Z,28.1
2018-07-08T14:43:19.695Z,28.1
2018-07-08T14:45:26.135Z,28.1
2018-07-08T14:47:32.453Z,28.1
2018-07-08T14:49:38.383Z,28.1
2018-07-08T14:51:41.735Z,28.1
2018-07-08T14:53:45.144Z,28.2
2018-07-08T14:55:48.644Z,28.2
2018-07-08T14:57:54.882Z,28.2
2018-07-08T14:59:58.218Z,28.2
2018-07-08T15:02:01.543Z,28.2
2018-07-08T15:04:06.015Z,28.2
2018-07-08T15:06:09.342Z,28.2
2018-07-08T15:08:15.375Z,28.2
2018-07-08T15:10:18.714Z,28.2
2018-07-08T15:12:22.982Z,28.2
2018-07-08T15:14:26.311Z,28.2
2018-07-08T15:16:29.682Z,28.3
2018-07-08T15:18:36.148Z,28.2
2018-07-08T15:20:39.481Z,28.2
2018-07-08T15:22:45.588Z,28.2
2018-07-08T15:24:48.916Z,28.3
2018-07-08T15:26:52.282Z,28.3
2018-07-08T15:28:56.541Z,28.3
2018-07-08T15:31:00.050Z,28.3
2018-07-08T15:33:03.391Z,28.3
2018-07-08T15:35:06.719Z,28.2
2018-07-08T15:37:12.977Z,28.3
2018-07-08T15:39:16.314Z,28.3
2018-07-08T15:41:19.880Z,28.3
2018-07-08T15:43:23.205Z,28.3
2018-07-08T15:45:26.538Z,28.3
2018-07-08T15:47:29.979Z,28.3
2018-07-08T15:49:33.843Z,28.3
2018-07-08T15:51:37.852Z,28.3
2018-07-08T15:53:41.194Z,28.3
2018-07-08T15:55:45.226Z,28.3
2018-07-08T15:57:48.797Z,28.3
2018-07-08T15:59:52.128Z,28.3
2018-07-08T16:01:55.491Z,28.3
2018-07-08T16:03:58.825Z,28.3
2018-07-08T16:06:02.241Z,28.3
2018-07-08T16:08:05.889Z,28.3
2018-07-08T16:10:09.211Z,28.3
2018-07-08T16:12:12.544Z,28.3
2018-07-08T16:14:15.883Z,28.3
2018-07-08T16:16:19.211Z,28.3
2018-07-08T16:18:22.626Z,28.3
2018-07-08T16:20:26.632Z,28.3
2018-07-08T16:22:29.959Z,28.4
2018-07-08T16:24:33.323Z,28.4
2018-07-08T16:26:36.644Z,28.4
2018-07-08T16:28:40.016Z,28.3
2018-07-08T16:30:43.339Z,28.3
2018-07-08T16:32:46.665Z,28.4
2018-07-08T16:34:50.009Z,28.4
2018-07-08T16:36:53.343Z,28.4
2018-07-08T16:38:56.681Z,28.4
2018-07-08T16:41:00.031Z,28.4
2018-07-08T16:43:03.356Z,28.4
2018-07-08T16:45:06.688Z,28.4
2018-07-08T16:47:10.023Z,28.4
2018-07-08T16:49:22.084Z,28.4
2018-07-08T16:51:25.410Z,28.4
2018-07-08T16:53:32.076Z,28.4
2018-07-08T16:55:35.405Z,28.4
2018-07-08T16:57:38.756Z,28.4
2018-07-08T16:59:43.088Z,28.4
2018-07-08T17:01:46.415Z,28.4
2018-07-08T17:03:49.744Z,28.4
2018-07-08T17:05:53.073Z,28.4
2018-07-08T17:07:56.398Z,28.4
2018-07-08T17:10:00.847Z,28.4
2018-07-08T17:12:04.214Z,28.4
2018-07-08T17:14:07.540Z,28.4
2018-07-08T17:16:14.569Z,28.5
2018-07-08T17:18:18.549Z,28.5
2018-07-08T17:20:22.246Z,28.5
2018-07-08T17:22:25.571Z,28.4
2018-07-08T17:24:29.840Z,28.5
2018-07-08T17:26:37.011Z,28.5
2018-07-08T17:28:43.709Z,28.5
2018-07-08T17:30:47.035Z,28.5
2018-07-08T17:32:50.409Z,28.5
2018-07-08T17:34:53.775Z,28.5
2018-07-08T17:36:57.105Z,28.5
2018-07-08T17:39:00.438Z,28.5
2018-07-08T17:41:03.849Z,28.5
2018-07-08T17:43:08.257Z,28.5
2018-07-08T17:45:11.588Z,28.5
2018-07-08T17:47:14.914Z,28.5
2018-07-08T17:49:18.283Z,28.5
2018-07-08T17:51:21.800Z,28.5
2018-07-08T17:53:25.170Z,28.5
2018-07-08T17:55:28.739Z,28.5
2018-07-08T17:57:32.094Z,28.5
2018-07-08T17:59:35.653Z,28.5
2018-07-08T18:01:38.979Z,28.5
2018-07-08T18:03:42.313Z,28.5
2018-07-08T18:05:45.640Z,28.5
2018-07-08T18:07:48.977Z,28.5
2018-07-08T18:09:53.246Z,28.5
2018-07-08T18:11:56.611Z,28.5
2018-07-08T18:13:59.961Z,28.6
2018-07-08T18:16:03.435Z,28.6
2018-07-08T18:18:06.761Z,28.6
2018-07-08T18:20:10.094Z,28.5
2018-07-08T18:22:13.421Z,28.4
2018-07-08T18:24:16.758Z,28.4
2018-07-08T18:26:20.093Z,28.4
2018-07-08T18:28:23.425Z,28.4
2018-07-08T18:30:26.747Z,28.5
2018-07-08T18:32:31.007Z,28.5
2018-07-08T18:34:34.349Z,28.6
2018-07-08T18:36:37.678Z,28.7
2018-07-08T18:38:41.016Z,28.8
2018-07-08T18:40:47.325Z,28.8
2018-07-08T18:42:54.325Z,28.9
2018-07-08T18:44:57.654Z,29
2018-07-08T18:47:00.981Z,29.1
2018-07-08T18:49:04.356Z,29.1
2018-07-08T18:51:07.682Z,29.1
2018-07-08T18:53:11.010Z,29.2
2018-07-08T18:55:14.365Z,29.2
2018-07-08T18:57:17.936Z,29.3
2018-07-08T18:59:21.292Z,29.2
2018-07-08T19:01:25.112Z,29.2
2018-07-08T19:03:28.439Z,29.1
2018-07-08T19:05:31.774Z,28.9
2018-07-08T19:07:35.122Z,28.4
2018-07-08T19:09:38.465Z,28.1
2018-07-08T19:11:41.789Z,27.6
2018-07-08T19:13:45.124Z,27.4
2018-07-08T19:15:48.491Z,27.2
2018-07-08T19:17:51.888Z,27.2
2018-07-08T19:19:55.254Z,27
2018-07-08T19:21:58.586Z,26.9
2018-07-08T19:24:01.917Z,26.9
2018-07-08T19:26:05.323Z,26.8
2018-07-08T19:28:08.651Z,26.7
2018-07-08T19:30:11.986Z,26.6
2018-07-08T19:32:15.320Z,26.5
2018-07-08T19:34:18.649Z,26.4
2018-07-08T19:36:21.981Z,26.5
2018-07-08T19:38:25.305Z,26.5
2018-07-08T19:40:28.731Z,26.4
2018-07-08T19:42:32.748Z,26.4
2018-07-08T19:44:38.352Z,26.4
2018-07-08T19:46:41.856Z,26.4
2018-07-08T19:48:45.200Z,26.4
2018-07-08T19:50:48.526Z,26.5
2018-07-08T19:52:51.912Z,26.4
2018-07-08T19:54:55.239Z,26.5
2018-07-08T19:56:58.563Z,26.3
2018-07-08T19:59:01.957Z,26.3
2018-07-08T20:01:05.379Z,26.3
2018-07-08T20:03:09.384Z,26.5
2018-07-08T20:05:12.712Z,26.6
2018-07-08T20:07:16.111Z,26.7
2018-07-08T20:09:19.575Z,26.8
2018-07-08T20:11:22.907Z,26.8
2018-07-08T20:13:26.233Z,26.9
2018-07-08T20:15:29.654Z,27
2018-07-08T20:17:33.009Z,27.1
2018-07-08T20:19:36.446Z,27.1
2018-07-08T20:21:39.824Z,27.2
2018-07-08T20:23:43.806Z,27.2
2018-07-08T20:25:47.141Z,27.2
2018-07-08T20:27:50.469Z,27.3
2018-07-08T20:29:53.802Z,27.3
2018-07-08T20:31:57.127Z,27.4
2018-07-08T20:34:00.454Z,27.4
2018-07-08T20:36:04.023Z,27.4
2018-07-08T20:38:07.354Z,27.4
2018-07-08T20:40:10.688Z,27.4
2018-07-08T20:42:14.017Z,27.4
2018-07-08T20:44:17.345Z,27.4
2018-07-08T20:46:21.609Z,27.3
2018-07-08T20:48:24.945Z,27.2
2018-07-08T20:50:28.284Z,27.2
2018-07-08T20:52:31.608Z,27.1
2018-07-08T20:54:34.935Z,27.1
2018-07-08T20:56:38.288Z,27
2018-07-08T20:58:41.626Z,27.2
2018-07-08T21:00:44.950Z,27.3
2018-07-08T21:02:48.443Z,27.5
2018-07-08T21:04:51.767Z,27.8
2018-07-08T21:06:55.107Z,27.9
2018-07-08T21:08:58.430Z,28
2018-07-08T21:11:01.789Z,28.1
2018-07-08T21:13:05.126Z,28.2
2018-07-08T21:15:08.449Z,28.2
2018-07-08T21:17:11.850Z,28.2
2018-07-08T21:19:15.267Z,28.3
2018-07-08T21:21:18.681Z,28.4
2018-07-08T21:23:22.011Z,28.4
2018-07-08T21:25:25.336Z,28.4
2018-07-08T21:27:28.669Z,28.4
2018-07-08T21:29:32.006Z,28.5
2018-07-08T21:31:35.345Z,28.5
2018-07-08T21:33:38.672Z,28.5
2018-07-08T21:35:42.007Z,28.5
2018-07-08T21:37:45.333Z,28.7
2018-07-08T21:39:48.666Z,28.7
2018-07-08T21:41:51.994Z,28.6
2018-07-08T21:43:55.361Z,28.6
2018-07-08T21:45:58.685Z,28.5
2018-07-08T21:48:02.017Z,28.6
2018-07-08T21:50:05.365Z,28.6
2018-07-08T21:52:08.696Z,28.6
2018-07-08T21:54:12.030Z,28.7
2018-07-08T21:56:15.364Z,28.8
2018-07-08T21:58:19.625Z,28.7
2018-07-08T22:00:22.955Z,28.7
2018-07-08T22:02:26.288Z,28.8
2018-07-08T22:04:29.615Z,28.9
2018-07-08T22:06:32.952Z,28.8
2018-07-08T22:08:36.279Z,28.9
2018-07-08T22:10:39.652Z,29
2018-07-08T22:12:42.986Z,29.3
2018-07-08T22:14:46.321Z,29.2
2018-07-08T22:16:49.691Z,29.4
2018-07-08T22:18:53.017Z,29.5
2018-07-08T22:20:56.342Z,29.5
2018-07-08T22:22:59.677Z,29.6
2018-07-08T22:25:03.049Z,29.6
2018-07-08T22:27:06.379Z,29.7
2018-07-08T22:29:09.706Z,29.8
2018-07-08T22:31:13.038Z,29.9
2018-07-08T22:33:16.408Z,29.6
2018-07-08T22:35:19.734Z,29.2
2018-07-08T22:37:23.062Z,28.9
2018-07-08T22:39:26.458Z,28.7
2018-07-08T22:41:29.936Z,28.8
2018-07-08T22:43:35.988Z,28.7
2018-07-08T22:45:39.316Z,28.7
2018-07-08T22:47:42.645Z,28.6
2018-07-08T22:49:46.041Z,28.6
2018-07-08T22:51:49.367Z,28.6
2018-07-08T22:53:52.699Z,28.6
2018-07-08T22:55:56.029Z,28.5
2018-07-08T22:57:59.359Z,28.5
2018-07-08T23:00:02.736Z,28.5
2018-07-08T23:02:06.161Z,28.5
2018-07-08T23:04:09.495Z,28.4
2018-07-08T23:06:12.858Z,28.5
2018-07-08T23:08:16.185Z,28.5
2018-07-08T23:10:19.512Z,28.4
2018-07-08T23:12:22.868Z,28.3
2018-07-08T23:14:26.920Z,28.4
2018-07-08T23:16:30.244Z,28.3
2018-07-08T23:18:33.617Z,28.3
2018-07-08T23:20:36.943Z,28.3
2018-07-08T23:22:40.277Z,28.2
2018-07-08T23:24:43.609Z,28.2
2018-07-08T23:26:46.939Z,28.3
2018-07-08T23:28:50.274Z,28.3
2018-07-08T23:30:53.597Z,28.4
2018-07-08T23:32:56.932Z,28.4
2018-07-08T23:35:00.299Z,28.3
2018-07-08T23:37:03.666Z,28.3
2018-07-08T23:39:06.998Z,28.3
2018-07-08T23:41:10.329Z,28.2
2018-07-08T23:43:13.657Z,28.2
2018-07-08T23:45:16.989Z,28.1
2018-07-08T23:47:20.320Z,28.3
2018-07-08T23:49:23.649Z,28.3
2018-07-08T23:51:26.981Z,28.3
2018-07-08T23:53:30.316Z,28.4
2018-07-08T23:55:33.644Z,28.3
2018-07-08T23:57:36.976Z,28.1
2018-07-08T23:59:40.343Z,28.2
